Time;durP1;ratioP1;P1;durP2;ratioP2;P2;SDS_P1;SDS_P2;PMS_P1;PMS_P2;Temp;Humidity;BMP_temperature;BMP_pressure;BME280_temperature;BME280_humidity;BME280_pressure;Samples;Min_cycle;Max_cycle;Signal;HPM_P1;HPM_P2
2022/11/21 07:25:31;;;;;;;52.03;26.23;;;-2.90;99.90;;;;;;6274151;22;20023;-86
2022/11/21 07:39:32;;;;;;;52.50;27.43;;;-2.80;99.90;;;;;;6152774;23;20029;-84
2022/11/21 08:12:56;;;;;;;53.83;27.07;;;-2.70;99.90;;;;;;6238760;22;20463;-86
2022/11/21 08:15:28;;;;;;;56.87;27.73;;;-3.30;99.90;;;;;;6286685;22;20015;-83
2022/11/21 08:48:44;;;;;;;62.23;30.60;;;-1.90;99.90;;;;;;6288531;22;20023;-88
2022/11/21 09:03:07;;;;;;;65.10;30.83;;;-1.30;99.90;;;;;;6094837;23;20058;-86
2022/11/21 09:27:04;;;;;;;66.87;33.40;;;-0.30;99.90;;;;;;6284955;22;20027;-85
2022/11/21 09:45:39;;;;;;;63.13;32.28;;;0.20;99.90;;;;;;6119713;23;20022;-89
2022/11/21 09:58:42;;;;;;;60.20;30.37;;;-0.70;99.90;;;;;;6307468;22;20022;-88
2022/11/21 10:01:15;;;;;;;52.53;29.47;;;0.50;99.90;;;;;;6279728;22;20010;-86
2022/11/21 10:03:55;;;;;;;58.00;29.75;;;0.10;99.90;;;;;;6279316;22;20039;-87
2022/11/21 10:07:01;;;;;;;58.57;29.90;;;0.90;99.90;;;;;;6278338;22;20047;-87
2022/11/21 10:10:22;;;;;;;;;;;;;;;;;;;;;
2022/11/21 10:14:17;;;;;;;52.90;27.63;;;0.00;99.90;;;;;;6227090;22;20066;-87
2022/11/21 10:26:45;;;;;;;53.40;27.97;;;1.80;99.90;;;;;;6307174;22;20014;-86
2022/11/21 10:29:55;;;;;;;52.17;26.80;;;0.30;99.90;;;;;;6308337;22;20023;-86
2022/11/21 10:32:32;;;;;;;47.50;25.40;;;1.00;99.90;;;;;;6279497;22;20023;-86
2022/11/21 10:38:33;;;;;;;51.50;25.90;;;0.60;99.90;;;;;;6293342;22;20390;-86
2022/11/21 10:41:46;;;;;;;45.97;23.90;;;1.40;99.90;;;;;;6307708;22;20090;-86
2022/11/21 10:47:00;;;;;;;38.90;21.58;;;0.80;99.90;;;;;;6306613;22;20015;-86
2022/11/21 10:49:47;;;;;;;44.23;22.13;;;1.90;99.90;;;;;;6307189;22;20051;-85
2022/11/21 10:53:00;;;;;;;42.13;20.53;;;1.70;99.90;;;;;;6279336;22;20019;-87
2022/11/21 10:56:11;;;;;;;38.27;21.00;;;0.00;99.90;;;;;;6239467;22;20015;-86
2022/11/21 11:03:16;;;;;;;36.27;19.77;;;1.80;99.90;;;;;;6123124;23;20501;-86
2022/11/21 11:25:24;;;;;;;;;;;;;;;;;;;;;
2022/11/21 11:54:21;;;;;;;25.80;14.10;;;3.20;99.90;;;;;;6124361;23;20049;-84
2022/11/21 11:57:08;;;;;;;25.17;13.70;;;2.70;99.90;;;;;;6073172;23;20022;-84
2022/11/21 12:06:36;;;;;;;22.93;13.23;;;2.60;99.90;;;;;;6305287;22;20031;-85
2022/11/21 12:09:28;;;;;;;24.03;13.67;;;2.60;99.90;;;;;;6220201;22;20023;-85
2022/11/21 12:12:44;;;;;;;24.30;13.67;;;2.40;99.90;;;;;;6139980;22;20021;-85
2022/11/21 12:19:01;;;;;;;26.67;14.33;;;2.00;99.90;;;;;;6306670;22;20133;-85
2022/11/21 12:21:30;;;;;;;25.17;13.87;;;2.20;99.90;;;;;;6280832;22;20053;-85
2022/11/21 12:24:02;;;;;;;27.20;14.00;;;2.80;99.90;;;;;;6286576;22;20007;-85
2022/11/21 12:30:08;;;;;;;28.52;14.63;;;2.70;99.90;;;;;;6304779;22;20016;-85
2022/11/21 12:33:23;;;;;;;24.97;13.90;;;2.10;99.90;;;;;;6304758;22;20011;-85
2022/11/21 12:40:21;;;;;;;28.10;15.87;;;2.20;99.90;;;;;;6300975;22;20030;-88
2022/11/21 12:43:28;;;;;;;28.33;15.70;;;2.30;99.90;;;;;;6191974;23;20024;-85
2022/11/21 12:46:40;;;;;;;29.47;16.73;;;3.60;99.90;;;;;;6222667;23;20053;-85
2022/11/21 12:58:52;;;;;;;30.37;16.00;;;3.10;99.90;;;;;;6308908;22;20023;-84
2022/11/21 13:01:40;;;;;;;30.17;16.77;;;3.30;99.90;;;;;;6308243;22;20099;-87
2022/11/21 13:04:53;;;;;;;30.50;16.80;;;3.20;99.90;;;;;;6308487;22;20022;-86
2022/11/21 13:14:26;;;;;;;31.90;17.10;;;2.60;99.90;;;;;;6276351;22;20026;-85
2022/11/21 13:17:16;;;;;;;29.50;16.80;;;2.90;99.90;;;;;;6277273;22;20391;-85
2022/11/21 13:20:30;;;;;;;31.30;17.80;;;3.00;99.90;;;;;;6304473;22;20026;-85
2022/11/21 13:23:34;;;;;;;32.85;18.55;;;3.60;99.90;;;;;;6278285;22;20022;-85
2022/11/21 13:26:24;;;;;;;35.53;19.90;;;4.00;99.90;;;;;;6305943;22;20015;-86
2022/11/21 13:29:13;;;;;;;35.87;19.77;;;2.80;99.90;;;;;;6280214;22;20331;-85
2022/11/21 13:31:56;;;;;;;34.53;19.70;;;3.00;99.90;;;;;;6280429;22;20026;-85
2022/11/21 13:34:37;;;;;;;38.10;20.27;;;2.50;99.90;;;;;;6289235;22;20060;-85
2022/11/21 13:37:51;;;;;;;39.03;20.10;;;4.30;99.90;;;;;;6281287;22;20064;-85
2022/11/21 13:40:38;;;;;;;35.73;19.73;;;3.60;99.90;;;;;;6279257;22;20844;-85
2022/11/21 13:46:32;;;;;;;;;;;2.70;99.90;;;;;;6308592;22;20019;-84
2022/11/21 13:49:37;;;;;;;39.28;22.13;;;2.90;99.90;;;;;;6306940;22;19941;-85
2022/11/21 13:52:20;;;;;;;39.00;21.07;;;2.40;99.90;;;;;;6309124;22;20019;-85
2022/11/21 13:58:08;;;;;;;39.80;21.23;;;2.00;99.90;;;;;;6306235;22;20049;-85
2022/11/21 14:00:52;;;;;;;41.83;21.70;;;2.90;99.90;;;;;;6279590;22;20022;-85
2022/11/21 14:03:36;;;;;;;46.53;23.65;;;1.70;99.90;;;;;;6279774;22;20015;-85
2022/11/21 14:06:27;;;;;;;43.53;22.92;;;2.00;99.90;;;;;;6280131;22;20015;-84
2022/11/21 14:09:11;;;;;;;47.83;24.77;;;3.60;99.90;;;;;;6279391;22;20044;-84
2022/11/21 14:12:03;;;;;;;44.93;23.53;;;2.90;99.90;;;;;;6307737;22;20019;-84
2022/11/21 14:15:12;;;;;;;45.73;24.47;;;2.50;99.90;;;;;;6279621;22;20011;-84
2022/11/21 14:17:54;;;;;;;43.40;22.83;;;3.50;99.90;;;;;;6281069;22;20022;-84
2022/11/21 14:21:02;;;;;;;49.07;24.67;;;2.80;99.90;;;;;;6280953;22;20426;-84
2022/11/21 14:23:44;;;;;;;48.30;24.20;;;1.50;99.90;;;;;;6278934;22;20012;-84
2022/11/21 14:26:27;;;;;;;50.80;25.40;;;3.30;99.90;;;;;;6284460;22;20019;-84
2022/11/21 14:29:39;;;;;;;56.72;26.23;;;2.20;99.90;;;;;;6280254;22;20054;-84
2022/11/21 14:32:58;;;;;;;53.57;26.63;;;2.40;99.90;;;;;;6280205;22;20023;-84
2022/11/21 14:35:33;;;;;;;58.27;26.17;;;3.20;99.90;;;;;;6123063;23;20030;-84
2022/11/21 14:38:24;;;;;;;51.40;25.80;;;3.80;99.90;;;;;;6274500;22;20057;-84
2022/11/21 14:44:35;;;;;;;57.65;25.63;;;2.80;99.90;;;;;;6279271;22;20016;-84
2022/11/21 14:47:25;;;;;;;61.97;26.93;;;2.00;99.90;;;;;;6243264;22;20024;-84
2022/11/21 14:50:41;;;;;;;63.87;26.23;;;2.40;99.90;;;;;;6218577;23;20020;-84
2022/11/21 14:53:27;;;;;;;69.47;27.53;;;2.60;99.90;;;;;;6245955;23;20047;-84
2022/11/21 14:56:42;;;;;;;71.13;28.67;;;1.90;99.90;;;;;;6245510;23;20016;-84
2022/11/21 14:59:55;;;;;;;70.85;27.40;;;1.80;99.90;;;;;;6217931;23;20042;-84
2022/11/21 15:02:45;;;;;;;70.93;27.37;;;2.80;99.90;;;;;;6099076;23;20081;-84
2022/11/21 15:05:32;;;;;;;71.47;27.43;;;1.60;99.90;;;;;;6119200;23;20018;-86
2022/11/21 15:08:09;;;;;;;75.87;29.00;;;2.10;99.90;;;;;;6122274;23;20036;-85
2022/11/21 15:15:39;;;;;;;83.33;28.23;;;3.20;99.90;;;;;;5976890;24;20875;-84
2022/11/21 15:18:30;;;;;;;86.57;29.77;;;1.70;99.90;;;;;;5939944;23;20003;-82
2022/11/21 15:21:15;;;;;;;94.87;29.83;;;1.50;99.90;;;;;;6039168;23;20020;-84
2022/11/21 15:24:38;;;;;;;102.70;30.63;;;1.90;99.90;;;;;;6121607;23;20068;-84
2022/11/21 15:27:51;;;;;;;95.87;30.00;;;1.50;99.90;;;;;;6121305;23;20018;-84
2022/11/21 15:30:33;;;;;;;100.43;30.83;;;2.20;99.90;;;;;;6097601;23;20022;-84
2022/11/21 15:33:18;;;;;;;102.23;31.50;;;3.20;99.90;;;;;;6096542;23;20018;-85
2022/11/21 15:49:55;;;;;;;120.45;30.60;;;2.40;99.90;;;;;;6303355;22;20023;-85
2022/11/21 15:52:42;;;;;;;;;;;3.20;99.90;;;;;;6279326;22;20019;-84
2022/11/21 15:55:30;;;;;;;108.93;30.20;;;1.90;99.90;;;;;;6315449;22;19916;-85
2022/11/21 15:57:55;;;;;;;117.50;30.97;;;3.40;99.90;;;;;;6281281;22;20019;-84
2022/11/21 16:00:26;;;;;;;113.87;31.07;;;2.90;99.90;;;;;;6298500;22;20031;-82
2022/11/21 16:03:03;;;;;;;99.43;30.60;;;3.00;99.90;;;;;;6280601;22;20022;-81
2022/11/21 16:06:11;;;;;;;91.50;27.90;;;2.00;99.90;;;;;;6274719;22;20015;-85
2022/11/21 16:08:48;;;;;;;110.53;31.47;;;2.90;99.90;;;;;;6274231;22;20051;-84
2022/11/21 16:11:31;;;;;;;125.13;31.00;;;3.00;99.90;;;;;;6280786;22;20443;-85
2022/11/21 16:17:11;;;;;;;136.63;29.87;;;3.20;99.90;;;;;;6310212;22;20022;-85
2022/11/21 16:19:59;;;;;;;115.90;28.80;;;2.90;99.90;;;;;;6339242;22;20015;-85
2022/11/21 16:22:33;;;;;;;168.63;31.70;;;4.00;99.90;;;;;;6338691;22;20011;-85
2022/11/21 16:25:23;;;;;;;192.30;31.73;;;2.40;99.90;;;;;;6256263;22;20023;-86
2022/11/21 16:28:58;;;;;;;143.87;29.77;;;2.30;99.90;;;;;;6249527;22;20335;-85
2022/11/21 16:32:33;;;;;;;132.98;30.10;;;3.50;99.90;;;;;;6251234;22;20471;-85
2022/11/21 16:35:02;;;;;;;135.90;29.35;;;2.60;99.90;;;;;;6277515;22;20011;-85
2022/11/21 16:37:39;;;;;;;166.83;34.10;;;2.30;99.90;;;;;;6248643;22;20046;-85
2022/11/21 16:40:50;;;;;;;150.90;33.70;;;3.40;99.90;;;;;;6277087;22;20012;-85
2022/11/21 16:43:34;;;;;;;169.37;34.17;;;1.50;99.90;;;;;;6189782;22;20129;-86
2022/11/21 16:49:01;;;;;;;139.53;31.83;;;2.30;99.90;;;;;;6289512;22;20053;-84
2022/11/21 16:51:58;;;;;;;;;;;;;;;;;;;;;
2022/11/21 16:54:54;;;;;;;137.80;31.13;;;2.10;99.90;;;;;;6247915;22;20085;-84
2022/11/21 16:57:35;;;;;;;142.47;31.83;;;1.80;99.90;;;;;;6279748;22;20015;-84
2022/11/21 17:00:19;;;;;;;142.83;31.43;;;4.00;99.90;;;;;;6241115;22;20831;-85
2022/11/21 17:03:37;;;;;;;;;;;;;;;;;;;;;
2022/11/21 19:31:26;;;;;;;149.20;32.07;;;2.70;99.90;;;;;;6305176;22;20454;-88
2022/11/21 20:54:17;;;;;;;62.40;23.47;;;2.20;99.90;;;;;;6185454;23;20015;-85
2022/11/21 21:13:45;;;;;;;51.47;21.43;;;1.60;99.90;;;;;;6287282;22;20070;-85
2022/11/21 21:16:57;;;;;;;50.80;21.07;;;3.20;99.90;;;;;;6307258;22;20088;-86
2022/11/21 21:19:31;;;;;;;52.00;20.87;;;2.30;99.90;;;;;;6250060;22;20027;-86
2022/11/21 21:25:28;;;;;;;49.07;20.13;;;2.50;99.90;;;;;;6292112;22;20023;-85
2022/11/21 21:29:00;;;;;;;46.00;19.57;;;2.20;99.90;;;;;;6279595;22;20019;-85
2022/11/21 21:32:14;;;;;;;45.33;20.00;;;1.80;99.90;;;;;;6278883;22;20019;-86
2022/11/21 21:34:52;;;;;;;44.50;18.87;;;2.30;99.90;;;;;;6181628;23;20017;-85
2022/11/21 21:37:30;;;;;;;40.70;18.03;;;2.60;99.90;;;;;;6180864;23;20013;-85
2022/11/21 21:40:18;;;;;;;44.83;19.27;;;4.20;99.90;;;;;;6180958;23;20024;-85
2022/11/21 21:43:21;;;;;;;42.63;19.03;;;2.70;99.90;;;;;;6252817;22;20348;-85
2022/11/21 21:49:53;;;;;;;39.30;17.90;;;2.70;99.90;;;;;;6240812;22;20024;-85
2022/11/21 21:52:29;;;;;;;38.63;17.05;;;1.90;99.90;;;;;;6296250;22;20023;-85
2022/11/21 21:54:58;;;;;;;38.83;17.97;;;2.50;99.90;;;;;;6279246;22;20027;-85
2022/11/21 21:57:29;;;;;;;40.60;17.40;;;2.50;99.90;;;;;;6279332;22;20015;-85
2022/11/21 22:03:32;;;;;;;39.20;17.63;;;2.60;99.90;;;;;;6241457;23;20077;-85
2022/11/21 22:06:23;;;;;;;35.00;17.27;;;2.60;99.90;;;;;;6216974;23;20015;-86
2022/11/21 22:09:01;;;;;;;35.43;16.43;;;2.90;99.90;;;;;;6241558;23;20120;-85
2022/11/21 22:11:37;;;;;;;39.30;17.00;;;2.80;99.90;;;;;;6241436;23;20099;-85
2022/11/21 22:14:14;;;;;;;34.17;15.93;;;3.70;99.90;;;;;;6216408;23;20075;-85
2022/11/21 22:16:50;;;;;;;34.13;16.43;;;2.60;99.90;;;;;;6220723;23;20023;-86
2022/11/21 22:19:17;;;;;;;33.13;15.17;;;2.20;99.90;;;;;;6242928;23;20344;-85
2022/11/21 22:21:46;;;;;;;31.37;15.07;;;2.30;99.90;;;;;;6240642;23;20444;-85
2022/11/21 22:24:58;;;;;;;32.27;15.37;;;2.60;99.90;;;;;;6257683;23;20012;-85
2022/11/21 22:27:32;;;;;;;30.90;15.30;;;4.00;99.90;;;;;;6242647;23;20020;-85
2022/11/21 22:30:01;;;;;;;32.10;15.50;;;1.70;99.90;;;;;;6211282;23;20024;-86
2022/11/21 22:32:34;;;;;;;29.17;15.70;;;3.40;99.90;;;;;;6257556;22;20023;-85
2022/11/21 22:35:32;;;;;;;32.90;16.13;;;2.20;99.90;;;;;;6273465;22;20089;-85
2022/11/21 22:38:15;;;;;;;29.03;14.43;;;1.60;99.90;;;;;;6211714;23;20013;-86
2022/11/21 22:41:21;;;;;;;29.80;15.13;;;2.50;99.90;;;;;;6274768;22;20028;-86
2022/11/21 22:43:58;;;;;;;33.03;15.17;;;3.40;99.90;;;;;;6273431;22;20467;-86
2022/11/21 22:46:27;;;;;;;30.63;15.00;;;2.10;99.90;;;;;;6274535;22;20016;-86
2022/11/21 22:49:00;;;;;;;31.67;15.43;;;3.30;99.90;;;;;;6275546;22;20020;-85
2022/11/21 22:51:57;;;;;;;30.17;14.98;;;2.80;99.90;;;;;;6273652;22;20016;-87
2022/11/21 22:54:42;;;;;;;31.03;14.93;;;3.20;99.90;;;;;;6156704;22;20062;-88
